createdAt,value
2023-04-08T00:01:18.491Z,40.05
2023-04-08T00:03:46.283Z,47.53
2023-04-08T00:06:13.722Z,41.53
2023-04-08T00:08:41.723Z,41.83
2023-04-08T00:11:09.019Z,40.95
2023-04-08T00:13:36.358Z,40.88
2023-04-08T00:16:04.002Z,47.78
2023-04-08T00:18:31.483Z,49.65
2023-04-08T00:20:58.769Z,51.22
2023-04-08T00:23:26.130Z,43.90
2023-04-08T00:25:53.488Z,42.03
2023-04-08T00:28:21.244Z,53.05
2023-04-08T00:30:48.578Z,55.80
2023-04-08T00:33:16.694Z,53.08
2023-04-08T00:35:44.034Z,41.78
2023-04-08T00:38:11.579Z,37.20
2023-04-08T00:40:38.974Z,45.67
2023-04-08T00:43:06.254Z,53.50
2023-04-08T00:45:34.063Z,61.03
2023-04-08T00:48:03.590Z,50.40
2023-04-08T00:50:31.183Z,51.20
2023-04-08T00:52:58.529Z,46.03
2023-04-08T00:55:25.951Z,39.97
2023-04-08T00:57:54.014Z,37.00
2023-04-08T01:00:21.527Z,47.28
2023-04-08T01:02:52.834Z,36.75
2023-04-08T01:05:35.053Z,31.95
2023-04-08T01:08:06.926Z,39.97
2023-04-08T01:10:37.856Z,33.70
2023-04-08T01:13:10.077Z,33.90
2023-04-08T01:15:40.983Z,38.38
2023-04-08T01:18:12.693Z,29.30
2023-04-08T01:20:42.507Z,33.85
2023-04-08T01:23:24.854Z,39.17
2023-04-08T01:25:56.224Z,54.05
2023-04-08T01:28:27.112Z,35.75
2023-04-08T01:30:57.439Z,41.75
2023-04-08T01:33:25.518Z,41.15
2023-04-08T01:35:54.520Z,37.70
2023-04-08T01:38:25.911Z,40.25
2023-04-08T01:40:54.934Z,42.15
2023-04-08T01:43:22.568Z,39.90
2023-04-08T01:45:54.459Z,36.40
2023-04-08T01:48:22.579Z,32.78
2023-04-08T01:50:51.421Z,42.80
2023-04-08T01:53:18.962Z,34.03
2023-04-08T01:55:46.952Z,41.22
2023-04-08T01:58:20.689Z,28.83
2023-04-08T02:00:48.791Z,28.42
2023-04-08T02:03:20.571Z,22.17
2023-04-08T02:05:48.095Z,26.27
2023-04-08T02:08:15.464Z,22.70
2023-04-08T02:10:42.792Z,30.92
2023-04-08T02:13:10.258Z,26.35
2023-04-08T02:15:43.211Z,34.28
2023-04-08T02:18:16.709Z,26.85
2023-04-08T02:20:48.280Z,22.77
2023-04-08T02:23:15.526Z,27.98
2023-04-08T02:25:45.710Z,28.90
2023-04-08T02:28:14.064Z,22.85
2023-04-08T02:30:49.997Z,25.45
2023-04-08T02:33:22.202Z,30.70
2023-04-08T02:35:51.519Z,20.27
2023-04-08T02:38:19.185Z,31.35
2023-04-08T02:40:46.592Z,34.38
2023-04-08T02:43:13.953Z,27.58
2023-04-08T02:45:45.581Z,26.23
2023-04-08T02:48:12.952Z,29.42
2023-04-08T02:50:41.223Z,37.03
2023-04-08T02:53:09.835Z,26.27
2023-04-08T02:55:38.001Z,23.73
2023-04-08T02:58:05.495Z,26.08
2023-04-08T03:00:32.828Z,31.33
2023-04-08T03:03:00.458Z,32.75
2023-04-08T03:05:28.115Z,28.17
2023-04-08T03:07:55.514Z,26.92
2023-04-08T03:10:22.913Z,26.67
2023-04-08T03:12:50.412Z,26.45
2023-04-08T03:15:17.834Z,34.13
2023-04-08T03:17:45.360Z,27.83
2023-04-08T03:20:12.777Z,28.80
2023-04-08T03:22:40.113Z,38.53
2023-04-08T03:25:07.934Z,39.50
2023-04-08T03:27:35.354Z,27.83
2023-04-08T03:30:02.684Z,34.67
2023-04-08T03:32:30.265Z,32.75
2023-04-08T03:34:57.755Z,32.83
2023-04-08T03:37:25.136Z,26.38
2023-04-08T03:39:52.452Z,26.55
2023-04-08T03:42:19.801Z,28.85
2023-04-08T03:44:47.286Z,27.48
2023-04-08T03:47:14.790Z,29.92
2023-04-08T03:49:42.108Z,39.58
2023-04-08T03:52:09.532Z,50.40
2023-04-08T03:54:36.963Z,39.40
2023-04-08T03:57:04.398Z,45.97
2023-04-08T03:59:34.208Z,39.58
2023-04-08T04:02:01.606Z,31.77
2023-04-08T04:04:29.037Z,29.63
2023-04-08T04:06:56.534Z,40.75
2023-04-08T04:09:23.904Z,39.17
2023-04-08T04:11:51.380Z,48.55
2023-04-08T04:14:18.670Z,32.42
2023-04-08T04:16:45.957Z,32.30
2023-04-08T04:19:13.358Z,38.40
2023-04-08T04:21:40.665Z,35.17
2023-04-08T04:24:07.957Z,28.95
2023-04-08T04:26:35.351Z,26.10
2023-04-08T04:29:02.852Z,35.72
2023-04-08T04:31:30.957Z,32.65
2023-04-08T04:33:58.480Z,31.02
2023-04-08T04:36:26.016Z,29.67
2023-04-08T04:38:53.730Z,25.45
2023-04-08T04:41:21.910Z,28.13
2023-04-08T04:43:49.216Z,26.50
2023-04-08T04:46:16.598Z,36.25
2023-04-08T04:48:44.135Z,29.63
2023-04-08T04:51:11.541Z,31.38
2023-04-08T04:53:38.805Z,34.17
2023-04-08T04:56:06.495Z,29.42
2023-04-08T04:58:33.833Z,32.28
2023-04-08T05:01:01.449Z,25.60
2023-04-08T05:03:28.913Z,29.75
2023-04-08T05:05:56.349Z,27.73
2023-04-08T05:08:24.552Z,24.77
2023-04-08T05:10:55.695Z,41.72
2023-04-08T05:13:22.995Z,36.38
2023-04-08T05:15:50.482Z,28.90
2023-04-08T05:18:17.827Z,27.55
2023-04-08T05:20:45.330Z,29.85
2023-04-08T05:23:12.734Z,32.78
2023-04-08T05:25:40.185Z,61.67
2023-04-08T05:28:07.810Z,36.67
2023-04-08T05:30:35.173Z,48.67
2023-04-08T05:33:02.504Z,38.17
2023-04-08T05:35:30.178Z,29.13
2023-04-08T05:37:57.516Z,50.67
2023-04-08T05:44:28.431Z,45.83
2023-04-08T05:47:00.633Z,54.17
2023-04-08T05:49:28.041Z,54.58
2023-04-08T05:51:55.357Z,43.33
2023-04-08T05:54:22.661Z,42.45
2023-04-08T05:56:49.907Z,47.55
2023-04-08T05:59:17.196Z,45.40
2023-04-08T06:01:44.903Z,36.92
2023-04-08T06:04:12.366Z,42.38
2023-04-08T06:06:42.390Z,32.65
2023-04-08T06:09:12.554Z,43.65
2023-04-08T06:11:40.021Z,34.72
2023-04-08T06:14:07.507Z,42.78
2023-04-08T06:16:34.855Z,40.47
2023-04-08T06:19:02.291Z,35.53
2023-04-08T06:21:29.701Z,43.50
2023-04-08T06:23:57.060Z,43.97
2023-04-08T06:26:24.564Z,35.92
2023-04-08T06:28:52.553Z,38.33
2023-04-08T06:31:20.140Z,50.17
2023-04-08T06:33:47.491Z,39.47
2023-04-08T06:36:14.979Z,59.10
2023-04-08T06:38:49.029Z,40.33
2023-04-08T06:41:16.534Z,41.03
2023-04-08T06:43:43.820Z,41.40
2023-04-08T06:46:11.498Z,40.58
2023-04-08T06:48:39.268Z,38.13
2023-04-08T06:51:08.132Z,42.33
2023-04-08T06:53:35.594Z,41.63
2023-04-08T06:56:03.033Z,47.65
2023-04-08T06:58:30.453Z,38.05
2023-04-08T07:00:59.272Z,45.60
2023-04-08T07:03:27.162Z,42.80
2023-04-08T07:05:54.763Z,43.95
2023-04-08T07:08:22.108Z,42.25
2023-04-08T07:10:49.600Z,41.80
2023-04-08T07:13:17.691Z,46.70
2023-04-08T07:15:45.296Z,47.63
2023-04-08T07:18:13.637Z,45.88
2023-04-08T07:20:42.090Z,39.05
2023-04-08T07:23:09.455Z,43.35
2023-04-08T07:25:36.790Z,46.13
2023-04-08T07:28:04.354Z,48.53
2023-04-08T07:30:31.627Z,48.45
2023-04-08T07:33:00.894Z,51.95
2023-04-08T07:35:29.725Z,50.53
2023-04-08T07:37:57.809Z,53.50
2023-04-08T07:40:25.365Z,48.38
2023-04-08T07:42:53.203Z,49.72
2023-04-08T07:45:20.863Z,48.22
2023-04-08T07:47:48.284Z,38.95
2023-04-08T07:50:15.794Z,43.72
2023-04-08T07:52:43.044Z,39.65
2023-04-08T07:55:10.731Z,44.38
2023-04-08T07:57:38.195Z,51.63
2023-04-08T08:00:06.468Z,42.58
2023-04-08T08:02:34.692Z,36.72
2023-04-08T08:05:03.710Z,38.25
2023-04-08T08:07:31.132Z,59.42
2023-04-08T08:09:58.453Z,40.03
2023-04-08T08:12:25.860Z,39.20
2023-04-08T08:14:54.965Z,39.47
2023-04-08T08:17:22.415Z,38.70
2023-04-08T08:19:49.812Z,38.80
2023-04-08T08:22:17.435Z,38.97
2023-04-08T08:24:44.710Z,36.83
2023-04-08T08:27:12.235Z,32.80
2023-04-08T08:29:39.762Z,32.10
2023-04-08T08:32:07.056Z,28.77
2023-04-08T08:34:34.408Z,37.38
2023-04-08T08:37:01.833Z,33.42
2023-04-08T08:39:29.272Z,30.83
2023-04-08T08:41:56.960Z,24.85
2023-04-08T08:44:24.359Z,24.70
2023-04-08T08:46:52.225Z,23.38
2023-04-08T08:49:19.736Z,31.88
2023-04-08T08:51:47.561Z,27.25
2023-04-08T08:54:17.022Z,21.80
2023-04-08T08:56:44.327Z,22.23
2023-04-08T08:59:11.710Z,24.73
2023-04-08T09:01:41.530Z,28.02
2023-04-08T09:04:20.462Z,28.83
2023-04-08T09:06:50.961Z,20.60
2023-04-08T09:09:18.690Z,25.10
2023-04-08T09:11:47.654Z,26.92
2023-04-08T09:14:19.087Z,24.73
2023-04-08T09:16:46.799Z,27.40
2023-04-08T09:19:14.229Z,29.70
2023-04-08T09:21:41.627Z,30.08
2023-04-08T09:24:09.970Z,32.25
2023-04-08T09:26:37.734Z,26.45
2023-04-08T09:29:24.994Z,22.95
2023-04-08T09:32:01.385Z,23.88
2023-04-08T09:34:30.902Z,18.92
2023-04-08T09:36:58.250Z,25.10
2023-04-08T09:39:25.897Z,19.05
2023-04-08T09:41:56.928Z,24.42
2023-04-08T09:44:26.757Z,19.83
2023-04-08T09:47:06.045Z,17.42
2023-04-08T09:49:43.545Z,14.88
2023-04-08T09:52:47.330Z,16.45
2023-04-08T09:55:17.680Z,13.40
2023-04-08T09:57:52.832Z,21.50
2023-04-08T10:00:24.940Z,22.73
2023-04-08T10:02:57.348Z,15.93
2023-04-08T10:05:25.872Z,22.05
2023-04-08T10:07:53.462Z,15.23
2023-04-08T10:10:21.295Z,10.48
2023-04-08T10:12:49.362Z,15.63
2023-04-08T10:15:30.996Z,8.43
2023-04-08T10:18:07.377Z,11.90
2023-04-08T10:20:34.793Z,11.73
2023-04-08T10:23:09.972Z,10.32
2023-04-08T10:25:43.220Z,28.67
2023-04-08T10:28:13.523Z,22.60
2023-04-08T10:30:44.457Z,11.77
2023-04-08T10:33:30.819Z,9.15
2023-04-08T10:36:11.902Z,6.20
2023-04-08T10:38:40.071Z,10.15
2023-04-08T10:41:07.503Z,15.30
2023-04-08T10:43:35.918Z,11.65
2023-04-08T10:46:05.206Z,9.20
2023-04-08T10:48:32.774Z,13.52
2023-04-08T10:51:04.541Z,10.00
2023-04-08T10:53:37.865Z,13.65
2023-04-08T10:56:07.328Z,13.63
2023-04-08T10:58:51.869Z,7.45
2023-04-08T11:01:20.136Z,8.38
2023-04-08T11:03:47.859Z,9.15
2023-04-08T11:06:15.794Z,11.85
2023-04-08T11:08:44.742Z,6.25
2023-04-08T11:11:12.197Z,7.00
2023-04-08T11:13:48.705Z,8.07
2023-04-08T11:16:20.907Z,6.25
2023-04-08T11:18:49.592Z,9.15
2023-04-08T11:21:17.427Z,8.52
2023-04-08T11:23:49.549Z,7.53
2023-04-08T11:26:17.562Z,5.65
2023-04-08T11:28:45.862Z,9.32
2023-04-08T11:31:13.852Z,6.88
2023-04-08T11:33:48.882Z,7.47
2023-04-08T11:36:18.872Z,9.10
2023-04-08T11:38:48.184Z,9.30
2023-04-08T11:41:16.414Z,5.32
2023-04-08T11:43:57.381Z,10.18
2023-04-08T11:46:25.486Z,7.55
2023-04-08T11:49:01.582Z,9.63
2023-04-08T11:51:29.260Z,8.80
2023-04-08T11:53:57.455Z,7.72
2023-04-08T11:56:25.788Z,9.70
2023-04-08T11:58:53.483Z,7.95
2023-04-08T12:01:21.708Z,6.25
2023-04-08T12:04:02.542Z,10.30
2023-04-08T12:06:30.159Z,11.05
2023-04-08T12:08:58.771Z,8.82
2023-04-08T12:11:27.272Z,9.75
2023-04-08T12:13:54.869Z,8.90
2023-04-08T12:16:22.282Z,9.80
2023-04-08T12:18:50.378Z,9.25
2023-04-08T12:21:17.740Z,8.73
2023-04-08T12:23:45.200Z,9.25
2023-04-08T12:26:13.367Z,10.13
2023-04-08T12:28:40.706Z,8.82
2023-04-08T12:34:19.139Z,7.43
2023-04-08T12:36:49.757Z,7.03
2023-04-08T12:39:17.152Z,6.10
2023-04-08T12:41:44.549Z,7.75
2023-04-08T12:44:11.885Z,6.90
2023-04-08T12:46:39.464Z,10.82
2023-04-08T12:49:08.068Z,8.20
2023-04-08T12:51:36.214Z,9.68
2023-04-08T12:57:16.617Z,9.02
2023-04-08T12:59:43.968Z,6.40
2023-04-08T13:02:11.521Z,10.77
2023-04-08T13:04:39.218Z,6.90
2023-04-08T13:07:07.700Z,9.15
2023-04-08T13:09:35.229Z,8.40
2023-04-08T13:12:03.998Z,8.43
2023-04-08T13:14:31.392Z,7.68
2023-04-08T13:16:58.944Z,8.88
2023-04-08T13:19:26.496Z,6.28
2023-04-08T13:21:55.921Z,7.97
2023-04-08T13:24:23.882Z,7.28
2023-04-08T13:26:51.647Z,8.30
2023-04-08T13:29:19.010Z,10.95
2023-04-08T13:31:46.677Z,6.00
2023-04-08T13:34:13.979Z,8.52
2023-04-08T13:36:41.440Z,5.13
2023-04-08T13:39:08.745Z,6.32
2023-04-08T13:41:36.181Z,8.98
2023-04-08T13:44:03.994Z,7.18
2023-04-08T13:46:31.439Z,10.32
2023-04-08T13:48:58.910Z,5.15
2023-04-08T13:51:27.293Z,9.95
2023-04-08T13:53:54.878Z,18.10
2023-04-08T13:56:22.214Z,9.88
2023-04-08T13:58:56.443Z,14.20
2023-04-08T14:01:24.407Z,13.65
2023-04-08T14:03:51.780Z,10.93
2023-04-08T14:06:19.139Z,12.82
2023-04-08T14:08:46.626Z,11.50
2023-04-08T14:11:13.926Z,11.13
2023-04-08T14:13:41.220Z,9.20
2023-04-08T14:16:08.870Z,10.07
2023-04-08T14:18:36.520Z,10.63
2023-04-08T14:21:05.465Z,7.55
2023-04-08T14:23:32.829Z,10.27
2023-04-08T14:26:01.622Z,12.23
2023-04-08T14:28:30.378Z,11.75
2023-04-08T14:30:57.728Z,8.70
2023-04-08T14:33:25.003Z,8.10
2023-04-08T14:35:53.269Z,8.23
2023-04-08T14:38:21.709Z,22.55
2023-04-08T14:40:49.231Z,24.75
2023-04-08T14:43:16.623Z,10.07
2023-04-08T14:45:45.057Z,17.30
2023-04-08T14:48:12.460Z,8.75
2023-04-08T14:50:39.815Z,11.57
2023-04-08T14:53:07.096Z,8.95
2023-04-08T14:55:34.431Z,7.40
2023-04-08T14:58:01.737Z,6.55
2023-04-08T15:00:29.132Z,10.38
2023-04-08T15:02:56.911Z,6.72
2023-04-08T15:05:24.402Z,7.00
2023-04-08T15:07:51.867Z,8.05
2023-04-08T15:10:19.296Z,5.60
2023-04-08T15:12:47.892Z,8.60
2023-04-08T15:15:15.778Z,5.60
2023-04-08T15:17:43.218Z,6.72
2023-04-08T15:20:11.347Z,6.43
2023-04-08T15:22:38.769Z,7.60
2023-04-08T15:25:09.713Z,6.47
2023-04-08T15:27:37.651Z,7.63
2023-04-08T15:30:06.588Z,5.75
2023-04-08T15:32:35.213Z,7.90
2023-04-08T15:35:02.734Z,5.47
2023-04-08T15:37:30.190Z,4.88
2023-04-08T15:40:00.136Z,7.68
2023-04-08T15:42:27.516Z,10.88
2023-04-08T15:44:54.820Z,9.27
2023-04-08T15:47:22.768Z,5.80
2023-04-08T15:49:52.692Z,6.55
2023-04-08T15:52:20.075Z,11.57
2023-04-08T15:54:48.387Z,6.75
2023-04-08T15:57:16.390Z,5.72
2023-04-08T15:59:43.923Z,7.80
2023-04-08T16:02:12.032Z,21.88
2023-04-08T16:04:39.459Z,19.98
2023-04-08T16:07:07.564Z,10.60
2023-04-08T16:09:35.145Z,8.20
2023-04-08T16:12:03.567Z,7.32
2023-04-08T16:14:30.974Z,5.95
2023-04-08T16:16:59.250Z,7.50
2023-04-08T16:19:26.650Z,16.13
2023-04-08T16:21:56.333Z,8.73
2023-04-08T16:24:23.784Z,7.88
2023-04-08T16:26:51.722Z,13.07
2023-04-08T16:29:19.393Z,12.48
2023-04-08T16:31:46.795Z,5.50
2023-04-08T16:34:14.107Z,7.25
2023-04-08T16:36:45.274Z,7.28
2023-04-08T16:39:12.621Z,9.35
2023-04-08T16:41:40.466Z,7.68
2023-04-08T16:44:07.842Z,6.85
2023-04-08T16:46:36.414Z,7.90
2023-04-08T16:49:03.877Z,9.23
2023-04-08T16:51:31.245Z,5.43
2023-04-08T16:53:59.842Z,6.32
2023-04-08T16:56:29.006Z,4.72
2023-04-08T16:58:57.077Z,11.25
2023-04-08T17:01:24.476Z,10.40
2023-04-08T17:03:55.505Z,5.57
2023-04-08T17:06:24.030Z,6.90
2023-04-08T17:08:54.190Z,7.40
2023-04-08T17:11:21.999Z,9.85
2023-04-08T17:13:52.514Z,10.15
2023-04-08T17:16:20.287Z,6.25
2023-04-08T17:18:47.835Z,6.55
2023-04-08T17:21:16.721Z,7.97
2023-04-08T17:23:44.115Z,5.68
2023-04-08T17:26:16.025Z,6.25
2023-04-08T17:28:44.289Z,6.68
2023-04-08T17:31:12.120Z,7.18
2023-04-08T17:33:42.075Z,6.88
2023-04-08T17:36:10.666Z,7.70
2023-04-08T17:38:40.015Z,5.22
2023-04-08T17:41:08.243Z,9.35
2023-04-08T17:43:36.167Z,6.35
2023-04-08T17:46:06.264Z,7.63
2023-04-08T17:48:33.861Z,8.13
2023-04-08T17:51:06.026Z,8.00
2023-04-08T17:53:38.187Z,8.77
2023-04-08T17:56:06.316Z,13.27
2023-04-08T17:58:33.605Z,8.30
2023-04-08T18:01:02.456Z,5.55
2023-04-08T18:03:30.284Z,5.38
2023-04-08T18:05:57.968Z,7.07
2023-04-08T18:08:29.684Z,5.63
2023-04-08T18:10:56.979Z,6.07
2023-04-08T18:13:28.088Z,7.53
2023-04-08T18:15:55.467Z,8.65
2023-04-08T18:18:22.848Z,6.63
2023-04-08T18:20:57.017Z,9.40
2023-04-08T18:23:24.473Z,9.32
2023-04-08T18:25:52.033Z,8.73
2023-04-08T18:28:21.860Z,12.00
2023-04-08T18:30:55.057Z,11.73
2023-04-08T18:34:02.896Z,10.73
2023-04-08T18:46:13.458Z,20.48
2023-04-08T18:48:43.260Z,22.08
2023-04-08T18:51:12.907Z,17.17
2023-04-08T18:53:40.779Z,25.92
2023-04-08T18:56:15.845Z,27.88
2023-04-08T18:58:44.673Z,22.05
2023-04-08T19:01:12.085Z,25.25
2023-04-08T19:03:39.592Z,21.42
2023-04-08T19:06:08.414Z,24.92
2023-04-08T19:08:37.224Z,22.80
2023-04-08T19:11:05.014Z,24.67
2023-04-08T19:13:34.045Z,27.75
2023-04-08T19:16:01.647Z,24.83
2023-04-08T19:18:29.063Z,28.77
2023-04-08T19:20:56.914Z,28.25
2023-04-08T19:23:24.381Z,24.05
2023-04-08T19:25:51.807Z,29.13
2023-04-08T19:28:19.130Z,23.98
2023-04-08T19:30:46.882Z,27.20
2023-04-08T19:33:15.914Z,33.35
2023-04-08T19:35:43.263Z,31.67
2023-04-08T19:38:12.220Z,26.30
2023-04-08T19:40:40.577Z,33.72
2023-04-08T19:43:07.939Z,39.95
2023-04-08T19:45:35.714Z,33.83
2023-04-08T19:48:03.074Z,32.00
2023-04-08T19:50:30.451Z,29.63
2023-04-08T19:53:27.206Z,31.05
2023-04-08T19:56:12.910Z,34.83
2023-04-08T19:58:40.164Z,29.02
2023-04-08T20:01:07.571Z,34.92
2023-04-08T20:03:35.004Z,41.83
2023-04-08T20:06:02.898Z,37.70
2023-04-08T20:08:30.168Z,36.97
2023-04-08T20:10:59.568Z,36.38
2023-04-08T20:13:30.172Z,37.63
2023-04-08T20:15:59.344Z,39.90
2023-04-08T20:27:06.194Z,43.05
2023-04-08T20:29:34.563Z,42.83
2023-04-08T20:39:36.863Z,42.28
2023-04-08T20:42:05.457Z,47.67
2023-04-08T20:44:32.826Z,45.03
2023-04-08T20:47:00.159Z,48.45
2023-04-08T20:53:52.495Z,49.42
2023-04-08T21:03:58.050Z,54.15
2023-04-08T21:06:27.599Z,55.58
2023-04-08T21:08:55.031Z,57.97
2023-04-08T21:11:22.541Z,51.40
2023-04-08T21:13:50.405Z,57.13
2023-04-08T21:16:17.835Z,58.78
2023-04-08T21:26:47.250Z,60.92
2023-04-08T21:32:35.932Z,57.80
2023-04-08T21:38:53.887Z,53.15
2023-04-08T21:41:21.847Z,49.78
2023-04-08T21:43:49.338Z,52.20
2023-04-08T21:46:16.899Z,52.67
2023-04-08T21:48:44.256Z,50.25
2023-04-08T21:51:17.342Z,53.00
2023-04-08T21:53:45.744Z,55.35
2023-04-08T21:56:14.148Z,53.40
2023-04-08T22:06:32.004Z,47.92
2023-04-08T22:11:27.486Z,45.13
2023-04-08T22:13:54.870Z,45.92
2023-04-08T22:16:23.209Z,48.65
2023-04-08T22:18:51.087Z,51.67
2023-04-08T22:21:25.282Z,44.42
2023-04-08T22:23:52.587Z,45.38
2023-04-08T22:26:19.891Z,43.75
2023-04-08T22:28:47.479Z,43.03
2023-04-08T22:31:17.044Z,41.55
2023-04-08T22:33:44.638Z,39.65
2023-04-08T22:36:12.012Z,36.00
2023-04-08T22:38:39.379Z,38.45
2023-04-08T22:41:06.753Z,39.17
2023-04-08T22:43:34.264Z,45.80
2023-04-08T22:46:01.634Z,42.80
2023-04-08T22:48:28.915Z,40.35
2023-04-08T22:50:56.692Z,37.67
2023-04-08T22:53:24.207Z,40.25
2023-04-08T22:55:51.714Z,41.30
2023-04-08T22:58:19.070Z,43.85
2023-04-08T23:00:46.416Z,45.65
2023-04-08T23:03:13.796Z,39.22
2023-04-08T23:05:41.214Z,39.42
2023-04-08T23:08:08.635Z,45.17
2023-04-08T23:10:36.031Z,47.97
2023-04-08T23:13:04.060Z,45.40
2023-04-08T23:15:32.186Z,44.35
2023-04-08T23:17:59.591Z,39.47
2023-04-08T23:20:26.993Z,45.15
2023-04-08T23:22:56.162Z,43.85
2023-04-08T23:25:23.507Z,41.53
2023-04-08T23:27:50.840Z,41.40
2023-04-08T23:30:18.285Z,49.92
2023-04-08T23:32:45.640Z,44.28
2023-04-08T23:35:13.815Z,43.42
2023-04-08T23:37:41.527Z,45.60
2023-04-08T23:40:09.530Z,43.40
2023-04-08T23:42:36.998Z,41.75
2023-04-08T23:45:05.638Z,38.50
2023-04-08T23:47:33.004Z,36.20
2023-04-08T23:50:00.408Z,40.35
2023-04-08T23:52:27.729Z,42.38
2023-04-08T23:54:55.562Z,39.58
2023-04-08T23:57:22.927Z,37.88
2023-04-08T23:59:50.475Z,36.75
